OJAQ/AQJ METAR and TAF weather

Enter ICAO airport designator
Station Type Date Time Source
OJAQ METAR 2019/04/25 12:00 UTC NOAA

OJAQ 251200Z 36020KT CAVOK 33/M02 Q1015 NOSIG


Station Type Date Time Source
OJAQ Decoded METAR 2019/04/25 12:00 UTC NOAA

Aqaba Airport, Jordan (OJAQ) 29-38N 035-01E 51M
Apr 25, 2019 - 08:00 AM EDT / 2019.04.25 1200 UTC
Wind: from the N (360 degrees) at 23 MPH (20 KT):0
Visibility: greater than 7 mile(s):0
Temperature: 91 F (33 C)
Dew Point: 28 F (-2 C)
Relative Humidity: 10%
Pressure (altimeter): 29.97 in. Hg (1015 hPa)
ob: OJAQ 251200Z 36020KT CAVOK 33/M02 Q1015 NOSIG
cycle: 12

Station Type Date Time Source
OJAQ TAF 2019/04/25 12:15 UTC NOAA

TAF TAF OJAQ 251007Z 2512/2618 34016KT 7000 NSC PROB30
TEMPO 2512/2516 35020KT 3000 BLDU
BECMG 2518/2520 36010KT CAVOK

Example: see airport list